Lauderdale Lakes, Florida
Current Conditions -  °F | °C
As of 1:53 AM on Friday 31 Oct 2014 (Local Time) from KFXE Reporting Station
Clear Clear  
Wind Chill: 73°   Ceiling: Unl
Heat Index: 73°   Visibility: 10mi
Dew Point: 65°   Wind: 0mph
Humidity: 76%   Direction: NA
Pressure: 29.86"   Gusts: NA
Location:  26.144°N, 80.1736°W
Report Text: KFXE 310553Z 00000KT 10SM CLR 23/18 A2986 RMK AO2 SLP114 T02280183 10256 20222 58011
Loading
Personal Weather Stations






























Interactive Weather Map
Tropical Storm Tracking
New forecast layout! Learn more

10-Day Weather Forecast

Advertisements
Track Severe Weather on mobile